createdAt,value
2023-03-02T00:02:00.164Z,101034.59
2023-03-02T00:09:18.744Z,101035.63
2023-03-02T00:16:36.845Z,101032.91
2023-03-02T00:23:56.345Z,101023.59
2023-03-02T00:31:14.679Z,101014.69
2023-03-02T00:38:33.043Z,101021.84
2023-03-02T00:45:52.622Z,101022.81
2023-03-02T00:53:11.402Z,101008.38
2023-03-02T01:00:30.078Z,101006.84
2023-03-02T01:16:12.970Z,100980.78
2023-03-02T01:23:32.941Z,100972.31
2023-03-02T01:30:51.185Z,100964.06
2023-03-02T01:38:09.431Z,100957.28
2023-03-02T01:45:47.064Z,100959.84
2023-03-02T02:02:06.931Z,100943.97
2023-03-02T02:09:26.307Z,100932.19
2023-03-02T02:16:44.682Z,100927.16
2023-03-02T02:24:11.464Z,100929.03
2023-03-02T02:31:36.198Z,100931.47
2023-03-02T02:38:56.432Z,100925.88
2023-03-02T02:46:15.441Z,100923.97
2023-03-02T02:53:46.322Z,100923.09
2023-03-02T03:01:05.041Z,100908.06
2023-03-02T03:17:56.221Z,100908.06
2023-03-02T03:25:15.630Z,100899.53
2023-03-02T03:32:37.125Z,100901.81
2023-03-02T03:39:58.023Z,100904.03
2023-03-02T03:47:16.662Z,100899.59
2023-03-02T03:54:35.446Z,100897.47
2023-03-02T04:01:57.488Z,100898.13
2023-03-02T04:09:19.192Z,100888.53
2023-03-02T04:16:39.236Z,100888.88
2023-03-02T04:23:59.646Z,100890.72
2023-03-02T04:31:49.884Z,100884.94
2023-03-02T04:39:12.264Z,100886.91
2023-03-02T04:46:31.193Z,100879.50
2023-03-02T04:53:50.689Z,100881.06
2023-03-02T05:01:11.104Z,100878.53
2023-03-02T05:08:29.487Z,100880.38
2023-03-02T05:15:47.834Z,100881.31
2023-03-02T05:23:09.303Z,100880.53
2023-03-02T05:30:27.782Z,100883.06
2023-03-02T05:37:46.049Z,100878.69
2023-03-02T05:45:06.446Z,100875.84
2023-03-02T05:52:24.578Z,100896.72
2023-03-02T05:59:43.280Z,100901.69
2023-03-02T06:07:02.905Z,100907.97
2023-03-02T06:14:21.105Z,100913.84
2023-03-02T06:21:46.939Z,100912.25
2023-03-02T06:29:07.783Z,100903.22
2023-03-02T06:36:26.339Z,100918.47
2023-03-02T06:43:44.534Z,100901.75
2023-03-02T06:51:04.213Z,100909.94
2023-03-02T06:58:22.351Z,100912.16
2023-03-02T07:05:40.609Z,100924.38
2023-03-02T07:13:00.331Z,100914.34
2023-03-02T07:20:19.835Z,100906.22
2023-03-02T07:27:37.947Z,100901.13
2023-03-02T07:34:57.423Z,100907.44
2023-03-02T07:42:15.655Z,100909.06
2023-03-02T07:49:37.228Z,100907.97
2023-03-02T07:56:56.824Z,100902.78
2023-03-02T08:04:15.133Z,100898.63
2023-03-02T08:11:33.891Z,100898.63
2023-03-02T08:18:53.749Z,100898.03
2023-03-02T08:26:14.306Z,100901.00
2023-03-02T08:33:34.068Z,100884.03
2023-03-02T08:40:54.069Z,100887.81
2023-03-02T08:48:12.224Z,100882.59
2023-03-02T08:55:30.397Z,100880.84
2023-03-02T09:02:50.135Z,100881.53
2023-03-02T09:10:09.065Z,100879.47
2023-03-02T09:17:27.318Z,100867.50
2023-03-02T09:24:46.994Z,100868.53
2023-03-02T09:32:05.610Z,100853.28
2023-03-02T09:39:24.141Z,100856.34
2023-03-02T09:46:46.297Z,100847.91
2023-03-02T09:54:10.041Z,100838.19
2023-03-02T10:01:37.653Z,100832.66
2023-03-02T10:08:57.597Z,100830.72
2023-03-02T10:16:24.797Z,100825.66
2023-03-02T10:23:46.003Z,100831.53
2023-03-02T10:31:10.087Z,100823.53
2023-03-02T10:38:30.502Z,100821.34
2023-03-02T10:46:00.238Z,100803.25
2023-03-02T10:53:20.481Z,100802.44
2023-03-02T11:00:38.608Z,100790.13
2023-03-02T11:07:58.550Z,100778.31
2023-03-02T11:15:23.585Z,100769.84
2023-03-02T11:22:47.192Z,100764.56
2023-03-02T11:30:08.896Z,100763.25
2023-03-02T11:37:31.766Z,100752.91
2023-03-02T11:44:50.623Z,100752.09
2023-03-02T11:52:19.186Z,100729.72
2023-03-02T11:59:38.777Z,100726.19
2023-03-02T12:06:57.023Z,100720.13
2023-03-02T12:14:39.113Z,100709.19
2023-03-02T12:22:00.014Z,100694.03
2023-03-02T12:29:25.748Z,100677.41
2023-03-02T12:36:45.709Z,100683.53
2023-03-02T12:44:14.623Z,100676.91
2023-03-02T12:51:35.698Z,100669.31
2023-03-02T12:58:55.667Z,100663.56
2023-03-02T13:06:18.352Z,100662.69
2023-03-02T13:13:40.550Z,100637.06
2023-03-02T13:21:00.829Z,100635.59
2023-03-02T13:28:30.099Z,100629.97
2023-03-02T13:35:49.114Z,100622.44
2023-03-02T13:43:31.824Z,100606.81
2023-03-02T13:50:55.309Z,100595.47
2023-03-02T13:58:17.579Z,100594.25
2023-03-02T14:05:37.459Z,100587.09
2023-03-02T14:12:58.948Z,100567.59
2023-03-02T14:20:19.638Z,100564.97
2023-03-02T14:27:39.873Z,100543.28
2023-03-02T14:34:58.587Z,100539.09
2023-03-02T14:42:18.827Z,100531.81
2023-03-02T14:49:38.334Z,100532.91
2023-03-02T14:56:56.522Z,100515.38
2023-03-02T15:04:14.996Z,100518.75
2023-03-02T15:11:35.145Z,100519.03
2023-03-02T15:18:54.249Z,100516.91
2023-03-02T15:26:13.353Z,100518.41
2023-03-02T15:33:32.921Z,100521.50
2023-03-02T15:40:51.212Z,100519.19
2023-03-02T15:48:11.089Z,100518.75
2023-03-02T15:55:32.175Z,100513.13
2023-03-02T16:02:50.603Z,100511.94
2023-03-02T16:10:15.179Z,100510.66
2023-03-02T16:17:35.073Z,100512.09
2023-03-02T16:24:53.362Z,100529.22
2023-03-02T16:32:11.678Z,100518.66
2023-03-02T16:39:32.649Z,100536.09
2023-03-02T16:46:51.062Z,100545.56
2023-03-02T16:54:09.597Z,100555.72
2023-03-02T17:01:29.863Z,100565.25
2023-03-02T17:08:48.361Z,100568.56
2023-03-02T17:16:07.058Z,100573.91
2023-03-02T17:23:27.249Z,100575.66
2023-03-02T17:40:20.336Z,100580.53
2023-03-02T17:47:38.651Z,100582.97
2023-03-02T17:54:56.817Z,100582.09
2023-03-02T18:02:16.340Z,100584.03
2023-03-02T18:09:34.607Z,100588.25
2023-03-02T18:16:52.971Z,100587.75
2023-03-02T18:24:13.723Z,100591.03
2023-03-02T18:31:34.668Z,100592.09
2023-03-02T18:38:54.548Z,100601.19
2023-03-02T18:46:21.073Z,100607.72
2023-03-02T18:53:39.624Z,100601.28
2023-03-02T19:10:13.834Z,100607.84
2023-03-02T19:17:34.754Z,100616.06
2023-03-02T19:24:53.902Z,100605.88
2023-03-02T19:32:15.029Z,100613.22
2023-03-02T19:39:33.353Z,100616.91
2023-03-02T19:46:51.568Z,100613.06
2023-03-02T19:54:11.444Z,100611.16
2023-03-02T20:01:30.234Z,100612.47
2023-03-02T20:08:49.328Z,100616.16
2023-03-02T20:16:09.971Z,100611.16
2023-03-02T20:23:28.475Z,100608.72
2023-03-02T20:40:11.639Z,100617.25
2023-03-02T20:47:30.548Z,100603.38
2023-03-02T20:54:48.949Z,100606.47
2023-03-02T21:02:08.998Z,100605.13
2023-03-02T21:09:27.227Z,100599.78
2023-03-02T21:16:46.050Z,100597.28
2023-03-02T21:24:06.141Z,100593.69
2023-03-02T21:31:24.509Z,100589.44
2023-03-02T21:38:44.984Z,100578.56
2023-03-02T21:46:04.675Z,100580.66
2023-03-02T21:53:22.901Z,100564.28
2023-03-02T22:10:25.370Z,100568.53
2023-03-02T22:17:43.791Z,100572.72
2023-03-02T22:25:01.987Z,100575.00
2023-03-02T22:32:23.694Z,100565.88
2023-03-02T22:39:42.490Z,100569.53
2023-03-02T22:47:01.324Z,100569.63
2023-03-02T22:54:24.470Z,100556.25
2023-03-02T23:01:44.788Z,100548.84
2023-03-02T23:09:04.672Z,100552.53
2023-03-02T23:16:26.203Z,100548.34
2023-03-02T23:23:46.527Z,100552.34
2023-03-02T23:40:10.533Z,100549.00
2023-03-02T23:47:29.304Z,100546.50
2023-03-02T23:54:47.536Z,100538.66
